DLH3509 EDDP-EDDS
Flight info
| Callsign | DLH3509 |
|---|---|
| Flight time | 0h 46m |
| Altitude | 26000 |
| Route | NEVKO2S NEVKO Q243 BAMKI Z94 GORKO/N0415F240 T726 TOSTU/N0409F230 T726 LBU |
| Aircraft | A320/M-SDE3FGHIRWY/LB1 |
Departure
| Time | 2026-05-05 10:44 |
|---|---|
| Airport | Leipzig/Halle Airport (EDDP) |
Arrival
| Time | 2026-05-05 11:30 |
|---|---|
| Airport | Stuttgart Airport (EDDS) |
| Time | Latitude | Longitude | Altitude | Speed | Heading |
|---|---|---|---|---|---|
| 2026-05-05 10:04 | 51.41927 | 12.21878 | 441 ft | 0 kts | 15° |
| 2026-05-05 10:29 | 51.41910 | 12.21871 | 330 ft | 4 kts | 15° |
| 2026-05-05 10:29 | 51.41891 | 12.21862 | 469 ft | 4 kts | 10° |
| 2026-05-05 10:30 | 51.41864 | 12.21859 | 432 ft | 4 kts | 352° |
| 2026-05-05 10:30 | 51.41840 | 12.21872 | 443 ft | 4 kts | 319° |
| 2026-05-05 10:30 | 51.41829 | 12.21894 | 435 ft | 0 kts | 285° |
| 2026-05-05 10:34 | 51.41830 | 12.21890 | 435 ft | 1 kts | 285° |
| 2026-05-05 10:34 | 51.41834 | 12.21864 | 440 ft | 8 kts | 285° |
| 2026-05-05 10:34 | 51.41856 | 12.21736 | 433 ft | 14 kts | 285° |
| 2026-05-05 10:34 | 51.41886 | 12.21564 | 433 ft | 18 kts | 285° |
| 2026-05-05 10:35 | 51.41922 | 12.21349 | 434 ft | 22 kts | 285° |
| 2026-05-05 10:35 | 51.41965 | 12.21106 | 429 ft | 24 kts | 286° |
| 2026-05-05 10:35 | 51.41951 | 12.20879 | 421 ft | 21 kts | 204° |
| 2026-05-05 10:35 | 51.41801 | 12.20809 | 430 ft | 27 kts | 195° |
| 2026-05-05 10:36 | 51.41601 | 12.20722 | 429 ft | 29 kts | 196° |
| 2026-05-05 10:36 | 51.41412 | 12.20636 | 442 ft | 28 kts | 196° |
| 2026-05-05 10:36 | 51.41237 | 12.20563 | 434 ft | 20 kts | 185° |
| 2026-05-05 10:36 | 51.41172 | 12.20672 | 428 ft | 7 kts | 89° |
| 2026-05-05 10:37 | 51.41175 | 12.20734 | 433 ft | 26 kts | 86° |
| 2026-05-05 10:37 | 51.41207 | 12.21454 | 453 ft | 99 kts | 85° |
| 2026-05-05 10:37 | 51.41276 | 12.22846 | 459 ft | 122 kts | 85° |
| 2026-05-05 10:37 | 51.41307 | 12.23480 | 464 ft | 29 kts | 85° |
| 2026-05-05 10:38 | 51.41312 | 12.23797 | 468 ft | 28 kts | 93° |
| 2026-05-05 10:38 | 51.41259 | 12.24109 | 484 ft | 29 kts | 115° |
| 2026-05-05 10:38 | 51.41195 | 12.24327 | 467 ft | 13 kts | 114° |
| 2026-05-05 10:38 | 51.41190 | 12.24342 | 467 ft | 0 kts | 122° |
| 2026-05-05 10:41 | 51.41189 | 12.24343 | 467 ft | 1 kts | 122° |
| 2026-05-05 10:41 | 51.41182 | 12.24374 | 468 ft | 5 kts | 108° |
| 2026-05-05 10:41 | 51.41177 | 12.24452 | 469 ft | 9 kts | 88° |
| 2026-05-05 10:41 | 51.41180 | 12.24586 | 468 ft | 16 kts | 87° |
| 2026-05-05 10:42 | 51.41196 | 12.24907 | 474 ft | 13 kts | 86° |
| 2026-05-05 10:42 | 51.41206 | 12.25081 | 474 ft | 21 kts | 86° |
| 2026-05-05 10:42 | 51.41215 | 12.25314 | 475 ft | 16 kts | 86° |
| 2026-05-05 10:43 | 51.41255 | 12.25426 | 473 ft | 14 kts | 9° |
| 2026-05-05 10:43 | 51.41354 | 12.25309 | 469 ft | 20 kts | 301° |
| 2026-05-05 10:43 | 51.41377 | 12.25074 | 470 ft | 32 kts | 266° |
| 2026-05-05 10:43 | 51.41338 | 12.24311 | 471 ft | 102 kts | 265° |
| 2026-05-05 10:44 | 51.41269 | 12.22872 | 462 ft | 154 kts | 265° |
| 2026-05-05 10:44 | 51.41185 | 12.21016 | 778 ft | 173 kts | 265° |
| 2026-05-05 10:44 | 51.41093 | 12.19093 | 1428 ft | 172 kts | 265° |
| 2026-05-05 10:44 | 51.41001 | 12.17140 | 2063 ft | 183 kts | 265° |
| 2026-05-05 10:45 | 51.40899 | 12.15011 | 2389 ft | 201 kts | 265° |
| 2026-05-05 10:45 | 51.40794 | 12.12791 | 3161 ft | 189 kts | 265° |
| 2026-05-05 10:45 | 51.40696 | 12.10699 | 3598 ft | 194 kts | 265° |
| 2026-05-05 10:45 | 51.40591 | 12.08529 | 4013 ft | 196 kts | 265° |
| 2026-05-05 10:46 | 51.40486 | 12.06342 | 4454 ft | 197 kts | 266° |
| 2026-05-05 10:46 | 51.40375 | 12.04044 | 4672 ft | 216 kts | 265° |
| 2026-05-05 10:46 | 51.40255 | 12.01540 | 4808 ft | 238 kts | 265° |
| 2026-05-05 10:46 | 51.40124 | 11.98838 | 5213 ft | 247 kts | 265° |
| 2026-05-05 10:47 | 51.39992 | 11.97011 | 5635 ft | 249 kts | 258° |
| 2026-05-05 10:47 | 51.39404 | 11.94390 | 6268 ft | 253 kts | 241° |
| 2026-05-05 10:47 | 51.38345 | 11.92131 | 6787 ft | 256 kts | 225° |
| 2026-05-05 10:47 | 51.36906 | 11.90435 | 6989 ft | 258 kts | 211° |
| 2026-05-05 10:48 | 51.35335 | 11.89007 | 7424 ft | 261 kts | 211° |
| 2026-05-05 10:48 | 51.33727 | 11.87532 | 7868 ft | 270 kts | 212° |
| 2026-05-05 10:48 | 51.32109 | 11.86039 | 8733 ft | 272 kts | 212° |
| 2026-05-05 10:48 | 51.30462 | 11.84515 | 9651 ft | 274 kts | 212° |
| 2026-05-05 10:49 | 51.28782 | 11.82957 | 10327 ft | 287 kts | 212° |
| 2026-05-05 10:49 | 51.26975 | 11.81281 | 10609 ft | 311 kts | 211° |
| 2026-05-05 10:49 | 51.25097 | 11.79421 | 10908 ft | 329 kts | 218° |
| 2026-05-05 10:49 | 51.23273 | 11.77134 | 11514 ft | 336 kts | 219° |
| 2026-05-05 10:50 | 51.21413 | 11.74805 | 12209 ft | 340 kts | 219° |
| 2026-05-05 10:50 | 51.19536 | 11.72467 | 12895 ft | 345 kts | 219° |
| 2026-05-05 10:50 | 51.17627 | 11.70093 | 13609 ft | 349 kts | 219° |
| 2026-05-05 10:50 | 51.15697 | 11.67695 | 14251 ft | 352 kts | 219° |
| 2026-05-05 10:51 | 51.13753 | 11.65285 | 14886 ft | 355 kts | 219° |
| 2026-05-05 10:51 | 51.11794 | 11.62857 | 15556 ft | 357 kts | 219° |
| 2026-05-05 10:51 | 51.09854 | 11.60447 | 16195 ft | 360 kts | 219° |
| 2026-05-05 10:51 | 51.07877 | 11.57994 | 16844 ft | 362 kts | 219° |
| 2026-05-05 10:52 | 51.05885 | 11.55523 | 17487 ft | 364 kts | 219° |
| 2026-05-05 10:52 | 51.03877 | 11.53034 | 18090 ft | 367 kts | 219° |
| 2026-05-05 10:52 | 51.01855 | 11.50528 | 18650 ft | 369 kts | 219° |
| 2026-05-05 10:52 | 50.99817 | 11.48007 | 19149 ft | 372 kts | 219° |
| 2026-05-05 10:53 | 50.97790 | 11.45505 | 19641 ft | 375 kts | 219° |
| 2026-05-05 10:53 | 50.95722 | 11.42956 | 20128 ft | 378 kts | 219° |
| 2026-05-05 10:53 | 50.93636 | 11.40387 | 20633 ft | 381 kts | 219° |
| 2026-05-05 10:53 | 50.91534 | 11.37806 | 21117 ft | 383 kts | 219° |
| 2026-05-05 10:54 | 50.89409 | 11.35203 | 21591 ft | 386 kts | 219° |
| 2026-05-05 10:54 | 50.87272 | 11.32585 | 22078 ft | 389 kts | 219° |
| 2026-05-05 10:54 | 50.85306 | 11.29697 | 22529 ft | 390 kts | 229° |
| 2026-05-05 10:54 | 50.83620 | 11.26326 | 22989 ft | 392 kts | 233° |
| 2026-05-05 10:55 | 50.81957 | 11.22859 | 23390 ft | 395 kts | 233° |
| 2026-05-05 10:55 | 50.80281 | 11.19389 | 23811 ft | 398 kts | 233° |
| 2026-05-05 10:55 | 50.78589 | 11.15906 | 24169 ft | 400 kts | 233° |
| 2026-05-05 10:55 | 50.76904 | 11.12449 | 24547 ft | 402 kts | 233° |
| 2026-05-05 10:56 | 50.75194 | 11.08947 | 24939 ft | 403 kts | 233° |
| 2026-05-05 10:56 | 50.73475 | 11.05433 | 25327 ft | 404 kts | 232° |
| 2026-05-05 10:56 | 50.71599 | 11.02119 | 25703 ft | 407 kts | 224° |
| 2026-05-05 10:56 | 50.69375 | 10.99301 | 25931 ft | 409 kts | 216° |
| 2026-05-05 10:57 | 50.67053 | 10.96748 | 25979 ft | 410 kts | 216° |
| 2026-05-05 10:57 | 50.64853 | 10.94341 | 25989 ft | 410 kts | 216° |
| 2026-05-05 10:57 | 50.62499 | 10.91774 | 26000 ft | 410 kts | 216° |
| 2026-05-05 10:57 | 50.60149 | 10.89218 | 26003 ft | 410 kts | 216° |
| 2026-05-05 10:58 | 50.57798 | 10.86659 | 25995 ft | 410 kts | 216° |
| 2026-05-05 10:58 | 50.55455 | 10.84105 | 26004 ft | 410 kts | 216° |
| 2026-05-05 10:58 | 50.53106 | 10.81543 | 26001 ft | 410 kts | 216° |
| 2026-05-05 10:58 | 50.50790 | 10.79014 | 26002 ft | 410 kts | 216° |
| 2026-05-05 10:59 | 50.48441 | 10.76455 | 26001 ft | 409 kts | 216° |
| 2026-05-05 10:59 | 50.46102 | 10.73910 | 26004 ft | 409 kts | 216° |
| 2026-05-05 10:59 | 50.43761 | 10.71362 | 26002 ft | 409 kts | 216° |
| 2026-05-05 10:59 | 50.41418 | 10.68814 | 25997 ft | 409 kts | 216° |
| 2026-05-05 11:00 | 50.39080 | 10.66282 | 26015 ft | 409 kts | 216° |
| 2026-05-05 11:00 | 50.36783 | 10.63802 | 25998 ft | 408 kts | 216° |
| 2026-05-05 11:00 | 50.34447 | 10.61283 | 25998 ft | 408 kts | 216° |
| 2026-05-05 11:00 | 50.32104 | 10.58758 | 25999 ft | 408 kts | 216° |
| 2026-05-05 11:01 | 50.29769 | 10.56250 | 25999 ft | 407 kts | 216° |
| 2026-05-05 11:01 | 50.27424 | 10.53741 | 25997 ft | 407 kts | 216° |
| 2026-05-05 11:01 | 50.25084 | 10.51226 | 25997 ft | 407 kts | 217° |
| 2026-05-05 11:01 | 50.22963 | 10.48403 | 25995 ft | 406 kts | 226° |
| 2026-05-05 11:02 | 50.21156 | 10.45006 | 25991 ft | 405 kts | 235° |
| 2026-05-05 11:02 | 50.19677 | 10.41263 | 25991 ft | 405 kts | 238° |
| 2026-05-05 11:02 | 50.18212 | 10.37479 | 25975 ft | 406 kts | 238° |
| 2026-05-05 11:02 | 50.16732 | 10.33709 | 25975 ft | 406 kts | 238° |
| 2026-05-05 11:03 | 50.15263 | 10.30002 | 25978 ft | 406 kts | 237° |
| 2026-05-05 11:03 | 50.13770 | 10.26243 | 25976 ft | 407 kts | 237° |
| 2026-05-05 11:03 | 50.12274 | 10.22480 | 25976 ft | 407 kts | 237° |
| 2026-05-05 11:03 | 50.10783 | 10.18717 | 25977 ft | 407 kts | 238° |
| 2026-05-05 11:04 | 50.09307 | 10.15003 | 25978 ft | 407 kts | 236° |
| 2026-05-05 11:04 | 50.07548 | 10.11545 | 25977 ft | 407 kts | 226° |
| 2026-05-05 11:04 | 50.05416 | 10.08630 | 25979 ft | 407 kts | 216° |
| 2026-05-05 11:04 | 50.02994 | 10.06332 | 25998 ft | 408 kts | 209° |
| 2026-05-05 11:05 | 50.00480 | 10.04291 | 25998 ft | 408 kts | 209° |
| 2026-05-05 11:05 | 49.97945 | 10.02224 | 25992 ft | 408 kts | 209° |
| 2026-05-05 11:05 | 49.95471 | 10.00199 | 25990 ft | 408 kts | 209° |
| 2026-05-05 11:05 | 49.92964 | 9.98145 | 25989 ft | 408 kts | 209° |
| 2026-05-05 11:06 | 49.90442 | 9.96081 | 25990 ft | 408 kts | 209° |
| 2026-05-05 11:06 | 49.87924 | 9.94027 | 25991 ft | 407 kts | 209° |
| 2026-05-05 11:06 | 49.85438 | 9.92005 | 25990 ft | 408 kts | 209° |
| 2026-05-05 11:06 | 49.82916 | 9.89957 | 25990 ft | 408 kts | 209° |
| 2026-05-05 11:07 | 49.80404 | 9.87921 | 25990 ft | 408 kts | 209° |
| 2026-05-05 11:07 | 49.77889 | 9.85885 | 25988 ft | 407 kts | 208° |
| 2026-05-05 11:07 | 49.75368 | 9.83844 | 25981 ft | 407 kts | 208° |
| 2026-05-05 11:07 | 49.72767 | 9.82084 | 25978 ft | 409 kts | 200° |
| 2026-05-05 11:08 | 49.70017 | 9.81053 | 25964 ft | 411 kts | 190° |
| 2026-05-05 11:08 | 49.67143 | 9.80780 | 25951 ft | 414 kts | 181° |
| 2026-05-05 11:08 | 49.64253 | 9.80923 | 25940 ft | 415 kts | 181° |
| 2026-05-05 11:08 | 49.61394 | 9.81080 | 25924 ft | 415 kts | 179° |
| 2026-05-05 11:09 | 49.58528 | 9.81697 | 25909 ft | 418 kts | 173° |
| 2026-05-05 11:09 | 49.55660 | 9.82493 | 25897 ft | 418 kts | 173° |
| 2026-05-05 11:09 | 49.52799 | 9.83288 | 25874 ft | 418 kts | 172° |
| 2026-05-05 11:09 | 49.49932 | 9.84086 | 25861 ft | 418 kts | 173° |
| 2026-05-05 11:10 | 49.47065 | 9.84880 | 25851 ft | 418 kts | 173° |
| 2026-05-05 11:10 | 49.44226 | 9.85663 | 25848 ft | 418 kts | 173° |
| 2026-05-05 11:10 | 49.41364 | 9.86454 | 25828 ft | 417 kts | 173° |
| 2026-05-05 11:10 | 49.38497 | 9.87245 | 25832 ft | 418 kts | 173° |
| 2026-05-05 11:11 | 49.35625 | 9.88034 | 25834 ft | 418 kts | 173° |
| 2026-05-05 11:11 | 49.32749 | 9.88819 | 25840 ft | 419 kts | 173° |
| 2026-05-05 11:11 | 49.29881 | 9.89600 | 25846 ft | 419 kts | 173° |
| 2026-05-05 11:11 | 49.27034 | 9.90376 | 25858 ft | 419 kts | 172° |
| 2026-05-05 11:12 | 49.24145 | 9.91017 | 25872 ft | 417 kts | 180° |
| 2026-05-05 11:12 | 49.21273 | 9.90658 | 25862 ft | 412 kts | 194° |
| 2026-05-05 11:12 | 49.18584 | 9.89153 | 25846 ft | 410 kts | 209° |
| 2026-05-05 11:12 | 49.16307 | 9.86663 | 25841 ft | 408 kts | 224° |
| 2026-05-05 11:13 | 49.14524 | 9.83330 | 25838 ft | 409 kts | 238° |
| 2026-05-05 11:13 | 49.13335 | 9.79358 | 25840 ft | 410 kts | 249° |
| 2026-05-05 11:13 | 49.12360 | 9.75255 | 25851 ft | 411 kts | 248° |
| 2026-05-05 11:13 | 49.11382 | 9.71192 | 25843 ft | 411 kts | 248° |
| 2026-05-05 11:14 | 49.10381 | 9.67075 | 25839 ft | 412 kts | 247° |
| 2026-05-05 11:14 | 49.09378 | 9.62977 | 25846 ft | 412 kts | 247° |
| 2026-05-05 11:14 | 49.08371 | 9.58875 | 25856 ft | 413 kts | 247° |
| 2026-05-05 11:14 | 49.07359 | 9.54744 | 25492 ft | 413 kts | 247° |
| 2026-05-05 11:15 | 49.06251 | 9.50775 | 24825 ft | 409 kts | 240° |
| 2026-05-05 11:15 | 49.04698 | 9.47177 | 24197 ft | 405 kts | 229° |
| 2026-05-05 11:15 | 49.02742 | 9.44098 | 23567 ft | 401 kts | 219° |
| 2026-05-05 11:15 | 49.00471 | 9.41646 | 22903 ft | 397 kts | 209° |
| 2026-05-05 11:16 | 48.98054 | 9.39632 | 22336 ft | 392 kts | 208° |
| 2026-05-05 11:16 | 48.95706 | 9.37683 | 21803 ft | 387 kts | 208° |
| 2026-05-05 11:16 | 48.93354 | 9.35730 | 21254 ft | 382 kts | 208° |
| 2026-05-05 11:16 | 48.91110 | 9.33574 | 20715 ft | 378 kts | 217° |
| 2026-05-05 11:17 | 48.89175 | 9.30953 | 20225 ft | 374 kts | 222° |
| 2026-05-05 11:17 | 48.87306 | 9.28230 | 19742 ft | 370 kts | 222° |
| 2026-05-05 11:17 | 48.85478 | 9.25577 | 19268 ft | 366 kts | 222° |
| 2026-05-05 11:17 | 48.83645 | 9.22924 | 18805 ft | 362 kts | 222° |
| 2026-05-05 11:18 | 48.81824 | 9.20293 | 18327 ft | 360 kts | 222° |
| 2026-05-05 11:18 | 48.80014 | 9.17680 | 17792 ft | 358 kts | 222° |
| 2026-05-05 11:18 | 48.78242 | 9.15056 | 17296 ft | 355 kts | 226° |
| 2026-05-05 11:18 | 48.76756 | 9.12062 | 16805 ft | 354 kts | 237° |
| 2026-05-05 11:19 | 48.75681 | 9.08702 | 16326 ft | 355 kts | 248° |
| 2026-05-05 11:19 | 48.74966 | 9.05119 | 15835 ft | 354 kts | 251° |
| 2026-05-05 11:19 | 48.74293 | 9.01561 | 15333 ft | 354 kts | 251° |
| 2026-05-05 11:19 | 48.73605 | 8.97961 | 14819 ft | 354 kts | 251° |
| 2026-05-05 11:20 | 48.72919 | 8.94391 | 14311 ft | 353 kts | 251° |
| 2026-05-05 11:20 | 48.72228 | 8.90817 | 13806 ft | 353 kts | 251° |
| 2026-05-05 11:20 | 48.71535 | 8.87246 | 13244 ft | 352 kts | 251° |
| 2026-05-05 11:20 | 48.70857 | 8.83739 | 12722 ft | 350 kts | 251° |
| 2026-05-05 11:21 | 48.70179 | 8.80223 | 12199 ft | 347 kts | 251° |
| 2026-05-05 11:21 | 48.69518 | 8.76802 | 11691 ft | 345 kts | 251° |
| 2026-05-05 11:21 | 48.68842 | 8.73322 | 11160 ft | 343 kts | 251° |
| 2026-05-05 11:21 | 48.68163 | 8.69857 | 10691 ft | 344 kts | 251° |
| 2026-05-05 11:22 | 48.67497 | 8.66439 | 10514 ft | 331 kts | 251° |
| 2026-05-05 11:22 | 48.66694 | 8.63261 | 10389 ft | 315 kts | 236° |
| 2026-05-05 11:22 | 48.65245 | 8.60919 | 10275 ft | 299 kts | 212° |
| 2026-05-05 11:22 | 48.63560 | 8.59782 | 10156 ft | 287 kts | 192° |
| 2026-05-05 11:23 | 48.61629 | 8.59665 | 9964 ft | 278 kts | 169° |
| 2026-05-05 11:23 | 48.59849 | 8.60672 | 9683 ft | 274 kts | 147° |
| 2026-05-05 11:23 | 48.58567 | 8.62821 | 9155 ft | 281 kts | 117° |
| 2026-05-05 11:23 | 48.58189 | 8.65722 | 8713 ft | 286 kts | 86° |
| 2026-05-05 11:24 | 48.58765 | 8.68578 | 8274 ft | 290 kts | 68° |
| 2026-05-05 11:24 | 48.59373 | 8.71508 | 7756 ft | 285 kts | 80° |
| 2026-05-05 11:24 | 48.59802 | 8.74412 | 7376 ft | 284 kts | 77° |
| 2026-05-05 11:24 | 48.60337 | 8.77288 | 6994 ft | 282 kts | 75° |
| 2026-05-05 11:25 | 48.60901 | 8.80127 | 6618 ft | 280 kts | 74° |
| 2026-05-05 11:25 | 48.61451 | 8.82936 | 6252 ft | 277 kts | 74° |
| 2026-05-05 11:25 | 48.61992 | 8.85731 | 5870 ft | 274 kts | 75° |
| 2026-05-05 11:25 | 48.62512 | 8.88419 | 5504 ft | 263 kts | 74° |
| 2026-05-05 11:26 | 48.63011 | 8.91002 | 5162 ft | 250 kts | 74° |
| 2026-05-05 11:26 | 48.63488 | 8.93475 | 4814 ft | 239 kts | 73° |
| 2026-05-05 11:26 | 48.63796 | 8.95072 | 4608 ft | 239 kts | 73° |
| 2026-05-05 11:26 | 48.64404 | 8.98228 | 4164 ft | 230 kts | 73° |
| 2026-05-05 11:27 | 48.64703 | 8.99784 | 3953 ft | 225 kts | 73° |
| 2026-05-05 11:27 | 48.65128 | 9.01991 | 3657 ft | 218 kts | 73° |
| 2026-05-05 11:27 | 48.65544 | 9.04158 | 3394 ft | 209 kts | 74° |
| 2026-05-05 11:27 | 48.65933 | 9.06190 | 3122 ft | 193 kts | 74° |
| 2026-05-05 11:28 | 48.66293 | 9.08069 | 2857 ft | 176 kts | 74° |
| 2026-05-05 11:28 | 48.66618 | 9.09767 | 2626 ft | 160 kts | 74° |
| 2026-05-05 11:28 | 48.66917 | 9.11330 | 2572 ft | 153 kts | 73° |
| 2026-05-05 11:28 | 48.67208 | 9.12855 | 2384 ft | 149 kts | 73° |
| 2026-05-05 11:29 | 48.67494 | 9.14351 | 2184 ft | 147 kts | 73° |
| 2026-05-05 11:29 | 48.67778 | 9.15834 | 1968 ft | 146 kts | 73° |
| 2026-05-05 11:29 | 48.68059 | 9.17318 | 1718 ft | 145 kts | 72° |
| 2026-05-05 11:29 | 48.68335 | 9.18783 | 1520 ft | 145 kts | 73° |
| 2026-05-05 11:30 | 48.68607 | 9.20227 | 1350 ft | 143 kts | 72° |
| 2026-05-05 11:30 | 48.68885 | 9.21628 | 1285 ft | 125 kts | 73° |
| 2026-05-05 11:30 | 48.69072 | 9.22635 | 1287 ft | 63 kts | 74° |
| 2026-05-05 11:30 | 48.69178 | 9.22974 | 1289 ft | 26 kts | 43° |
| 2026-05-05 11:31 | 48.69277 | 9.23116 | 1287 ft | 1 kts | 44° |
| 2026-05-05 11:31 | 48.69306 | 9.23147 | 1286 ft | 11 kts | 25° |
| 2026-05-05 11:32 | 48.69399 | 9.23099 | 1285 ft | 18 kts | 296° |
| 2026-05-05 11:32 | 48.69383 | 9.22910 | 1287 ft | 19 kts | 254° |
| 2026-05-05 11:32 | 48.69347 | 9.22710 | 1288 ft | 21 kts | 255° |
| 2026-05-05 11:32 | 48.69305 | 9.22488 | 1288 ft | 23 kts | 253° |
| 2026-05-05 11:33 | 48.69260 | 9.22247 | 1289 ft | 24 kts | 254° |
| 2026-05-05 11:33 | 48.69211 | 9.21992 | 1286 ft | 26 kts | 253° |
| 2026-05-05 11:33 | 48.69160 | 9.21727 | 1287 ft | 27 kts | 254° |
| 2026-05-05 11:33 | 48.69107 | 9.21446 | 1286 ft | 28 kts | 254° |
| 2026-05-05 11:34 | 48.69053 | 9.21154 | 1287 ft | 28 kts | 253° |
| 2026-05-05 11:34 | 48.69095 | 9.21016 | 1287 ft | 12 kts | 315° |
| 2026-05-05 11:34 | 48.69119 | 9.20996 | 1286 ft | 1 kts | 53° |
| 2026-05-05 11:34 | 48.69111 | 9.21009 | 1288 ft | 5 kts | 134° |
| 2026-05-05 11:35 | 48.69062 | 9.21056 | 1287 ft | 13 kts | 173° |
| 2026-05-05 11:35 | 48.69015 | 9.20965 | 1289 ft | 13 kts | 254° |
| 2026-05-05 11:35 | 48.68988 | 9.20821 | 1287 ft | 19 kts | 254° |
| 2026-05-05 11:35 | 48.68972 | 9.20616 | 1285 ft | 20 kts | 294° |
| 2026-05-05 11:36 | 48.69061 | 9.20457 | 1286 ft | 19 kts | 282° |
| 2026-05-05 11:36 | 48.69028 | 9.20253 | 1287 ft | 21 kts | 254° |
| 2026-05-05 11:36 | 48.68984 | 9.20041 | 1289 ft | 22 kts | 242° |
| 2026-05-05 11:36 | 48.68899 | 9.19836 | 1288 ft | 24 kts | 240° |
| 2026-05-05 11:37 | 48.68847 | 9.19595 | 1286 ft | 25 kts | 254° |
| 2026-05-05 11:37 | 48.68801 | 9.19354 | 1288 ft | 18 kts | 253° |
| 2026-05-05 11:37 | 48.68789 | 9.19247 | 1285 ft | 4 kts | 298° |
| 2026-05-05 11:37 | 48.68806 | 9.19230 | 1285 ft | 2 kts | 339° |
| 2026-05-05 11:38 | 48.68817 | 9.19228 | 1286 ft | 1 kts | 352° |
| 2026-05-05 11:38 | 48.68829 | 9.19225 | 1287 ft | 5 kts | 348° |
| 2026-05-05 11:38 | 48.68857 | 9.19213 | 1288 ft | 3 kts | 345° |
| 2026-05-05 11:38 | 48.68858 | 9.19213 | 1287 ft | 0 kts | 345° |